createdAt,value
2023-03-12T00:02:28.381Z,67.91
2023-03-12T00:07:37.070Z,68.05
2023-03-12T00:12:44.482Z,68.30
2023-03-12T00:17:52.409Z,68.29
2023-03-12T00:23:00.261Z,68.28
2023-03-12T00:28:09.008Z,68.59
2023-03-12T00:33:17.976Z,68.62
2023-03-12T00:38:26.493Z,68.70
2023-03-12T00:43:34.863Z,68.89
2023-03-12T00:48:43.565Z,69.08
2023-03-12T00:53:52.657Z,69.40
2023-03-12T00:59:01.231Z,69.50
2023-03-12T01:04:09.947Z,69.83
2023-03-12T01:09:17.547Z,69.97
2023-03-12T01:14:25.111Z,69.96
2023-03-12T01:19:33.812Z,70.14
2023-03-12T01:24:42.077Z,69.85
2023-03-12T01:29:50.711Z,70.09
2023-03-12T01:35:02.068Z,69.82
2023-03-12T01:40:16.719Z,70.02
2023-03-12T01:45:59.594Z,69.99
2023-03-12T01:51:11.007Z,70.32
2023-03-12T01:56:22.420Z,70.73
2023-03-12T02:01:32.261Z,71.30
2023-03-12T02:06:45.838Z,71.37
2023-03-12T02:11:54.975Z,71.65
2023-03-12T02:17:03.511Z,71.48
2023-03-12T02:22:12.692Z,72.07
2023-03-12T02:27:23.316Z,72.24
2023-03-12T02:32:36.635Z,72.49
2023-03-12T02:37:54.297Z,72.36
2023-03-12T02:43:02.785Z,72.55
2023-03-12T02:48:12.291Z,72.18
2023-03-12T02:53:20.887Z,72.31
2023-03-12T02:58:30.256Z,72.51
2023-03-12T03:03:39.403Z,72.52
2023-03-12T03:08:47.664Z,72.33
2023-03-12T03:13:56.526Z,72.55
2023-03-12T03:19:05.466Z,72.78
2023-03-12T03:24:14.235Z,72.47
2023-03-12T03:29:23.129Z,72.80
2023-03-12T03:34:32.073Z,72.88
2023-03-12T03:39:40.814Z,72.94
2023-03-12T03:44:49.452Z,72.97
2023-03-12T03:49:57.740Z,72.67
2023-03-12T03:55:06.644Z,72.85
2023-03-12T04:00:18.389Z,73.09
2023-03-12T04:05:27.333Z,73.33
2023-03-12T04:10:35.087Z,73.22
2023-03-12T04:15:51.191Z,73.34
2023-03-12T04:21:00.122Z,73.39
2023-03-12T04:26:09.357Z,73.36
2023-03-12T04:31:18.147Z,73.59
2023-03-12T04:36:31.714Z,73.49
2023-03-12T04:41:40.699Z,73.70
2023-03-12T04:46:52.077Z,73.61
2023-03-12T04:52:02.625Z,73.55
2023-03-12T04:57:10.329Z,73.10
2023-03-12T05:02:18.922Z,72.71
2023-03-12T05:07:28.042Z,72.49
2023-03-12T05:12:36.468Z,72.05
2023-03-12T05:17:45.044Z,71.89
2023-03-12T05:22:53.426Z,71.59
2023-03-12T05:28:01.733Z,71.39
2023-03-12T05:33:10.571Z,71.40
2023-03-12T05:38:18.074Z,71.37
2023-03-12T05:43:27.071Z,71.42
2023-03-12T05:48:34.799Z,71.23
2023-03-12T05:53:48.933Z,70.95
2023-03-12T05:58:57.891Z,70.81
2023-03-12T06:04:06.165Z,70.80
2023-03-12T06:09:13.931Z,70.65
2023-03-12T06:14:22.319Z,70.79
2023-03-12T06:19:30.708Z,70.81
2023-03-12T06:24:38.601Z,70.61
2023-03-12T06:29:48.387Z,70.37
2023-03-12T06:34:56.954Z,69.92
2023-03-12T06:40:10.350Z,69.96
2023-03-12T06:45:18.709Z,69.82
2023-03-12T06:50:27.701Z,70.00
2023-03-12T06:55:35.994Z,70.03
2023-03-12T07:00:44.910Z,69.77
2023-03-12T07:05:53.908Z,69.50
2023-03-12T07:11:03.806Z,69.45
2023-03-12T07:16:12.983Z,69.38
2023-03-12T07:21:24.259Z,69.30
2023-03-12T07:26:33.319Z,68.93
2023-03-12T07:31:41.700Z,69.33
2023-03-12T07:36:50.200Z,69.10
2023-03-12T07:41:58.645Z,69.10
2023-03-12T07:47:22.368Z,69.08
2023-03-12T07:52:32.812Z,69.00
2023-03-12T07:57:41.105Z,69.06
2023-03-12T08:02:50.269Z,68.36
2023-03-12T08:07:59.200Z,68.37
2023-03-12T08:13:07.515Z,68.17
2023-03-12T08:18:15.326Z,68.17
2023-03-12T08:23:24.745Z,68.28
2023-03-12T08:28:33.999Z,68.21
2023-03-12T08:33:44.110Z,68.86
2023-03-12T08:38:52.983Z,69.51
2023-03-12T08:44:02.267Z,69.72
2023-03-12T08:49:10.627Z,70.18
2023-03-12T08:54:19.386Z,70.40
2023-03-12T08:59:27.405Z,70.66
2023-03-12T09:04:36.374Z,70.69
2023-03-12T09:09:45.070Z,70.74
2023-03-12T09:15:08.731Z,70.81
2023-03-12T09:20:18.900Z,70.63
2023-03-12T09:25:28.471Z,70.47
2023-03-12T09:30:37.975Z,70.37
2023-03-12T09:35:46.315Z,70.02
2023-03-12T09:40:55.456Z,69.62
2023-03-12T09:46:05.103Z,69.28
2023-03-12T09:51:25.173Z,69.11
2023-03-12T09:56:34.915Z,68.90
2023-03-12T10:01:49.209Z,68.64
2023-03-12T10:07:03.566Z,68.58
2023-03-12T10:12:26.675Z,68.24
2023-03-12T10:17:52.499Z,67.76
2023-03-12T10:23:09.652Z,67.23
2023-03-12T10:28:24.191Z,67.11
2023-03-12T10:33:42.193Z,66.81
2023-03-12T10:38:50.497Z,65.74
2023-03-12T10:44:03.358Z,65.31
2023-03-12T10:49:42.849Z,65.14
2023-03-12T10:54:54.587Z,65.23
2023-03-12T11:00:13.937Z,65.41
2023-03-12T11:05:28.004Z,64.78
2023-03-12T11:10:47.760Z,64.53
2023-03-12T11:15:58.168Z,64.47
2023-03-12T11:21:22.348Z,64.77
2023-03-12T11:26:36.866Z,64.40
2023-03-12T11:31:52.327Z,64.30
2023-03-12T11:37:09.553Z,63.92
2023-03-12T11:42:27.458Z,63.82
2023-03-12T11:47:50.202Z,63.18
2023-03-12T11:53:20.613Z,62.46
2023-03-12T11:58:54.025Z,62.47
2023-03-12T12:04:43.063Z,62.11
2023-03-12T12:09:58.995Z,61.89
2023-03-12T12:15:23.873Z,62.23
2023-03-12T12:20:45.894Z,61.73
2023-03-12T12:26:11.603Z,61.60
2023-03-12T12:31:30.712Z,61.29
2023-03-12T12:36:41.147Z,61.29
2023-03-12T12:41:53.528Z,61.64
2023-03-12T12:47:01.739Z,62.14
2023-03-12T12:52:13.487Z,61.91
2023-03-12T12:57:28.801Z,61.66
2023-03-12T13:02:42.663Z,61.00
2023-03-12T13:07:51.001Z,60.70
2023-03-12T13:13:01.043Z,60.71
2023-03-12T13:18:20.778Z,59.45
2023-03-12T13:23:40.158Z,59.08
2023-03-12T13:29:15.765Z,58.99
2023-03-12T13:34:48.577Z,58.23
2023-03-12T13:39:57.068Z,57.38
2023-03-12T13:45:29.458Z,58.32
2023-03-12T13:50:35.661Z,57.04
2023-03-12T13:55:51.941Z,56.20
2023-03-12T14:01:03.457Z,56.09
2023-03-12T14:06:15.752Z,55.77
2023-03-12T14:11:36.152Z,55.50
2023-03-12T14:16:49.906Z,54.33
2023-03-12T14:22:02.574Z,54.13
2023-03-12T14:27:19.972Z,54.41
2023-03-12T14:32:32.482Z,54.27
2023-03-12T14:37:46.559Z,54.27
2023-03-12T14:42:56.282Z,54.66
2023-03-12T14:48:06.190Z,54.64
2023-03-12T14:53:25.258Z,54.25
2023-03-12T14:58:34.124Z,53.87
2023-03-12T15:03:48.099Z,54.00
2023-03-12T15:08:57.424Z,53.99
2023-03-12T15:14:10.135Z,54.19
2023-03-12T15:19:22.498Z,54.11
2023-03-12T15:24:31.136Z,53.95
2023-03-12T15:29:44.911Z,52.78
2023-03-12T15:34:54.378Z,53.31
2023-03-12T15:40:07.411Z,53.59
2023-03-12T15:45:23.687Z,53.65
2023-03-12T15:50:39.424Z,53.52
2023-03-12T15:56:03.508Z,53.24
2023-03-12T16:01:17.121Z,53.10
2023-03-12T16:06:30.350Z,53.11
2023-03-12T16:11:40.824Z,53.24
2023-03-12T16:16:48.813Z,53.12
2023-03-12T16:21:56.306Z,53.23
2023-03-12T16:27:07.738Z,53.05
2023-03-12T16:32:19.085Z,53.47
2023-03-12T16:37:27.612Z,53.88
2023-03-12T16:42:36.013Z,53.89
2023-03-12T16:47:44.425Z,54.19
2023-03-12T16:52:53.896Z,54.33
2023-03-12T16:58:05.764Z,54.73
2023-03-12T17:03:23.924Z,55.04
2023-03-12T17:08:31.327Z,54.98
2023-03-12T17:13:40.613Z,55.04
2023-03-12T17:18:48.218Z,54.79
2023-03-12T17:23:56.688Z,54.91
2023-03-12T17:29:05.146Z,55.05
2023-03-12T17:34:13.584Z,55.11
2023-03-12T17:39:21.596Z,55.29
2023-03-12T17:44:34.961Z,55.06
2023-03-12T17:49:45.741Z,54.62
2023-03-12T17:54:54.149Z,54.68
2023-03-12T18:00:02.566Z,54.61
2023-03-12T18:05:19.916Z,54.63
2023-03-12T18:10:27.343Z,54.84
2023-03-12T18:15:35.584Z,55.35
2023-03-12T18:20:45.429Z,55.67
2023-03-12T18:25:53.906Z,56.02
2023-03-12T18:31:02.263Z,56.65
2023-03-12T18:36:11.658Z,56.79
2023-03-12T18:41:20.111Z,57.17
2023-03-12T18:46:29.568Z,57.33
2023-03-12T18:51:38.140Z,57.63
2023-03-12T18:56:46.725Z,58.09
2023-03-12T19:01:55.262Z,58.25
2023-03-12T19:07:03.708Z,58.27
2023-03-12T19:12:12.160Z,58.35
2023-03-12T19:17:20.290Z,58.77
2023-03-12T19:22:28.706Z,59.15
2023-03-12T19:27:37.535Z,59.33
2023-03-12T19:32:46.099Z,59.63
2023-03-12T19:37:53.999Z,59.72
2023-03-12T19:43:02.646Z,59.93
2023-03-12T19:48:10.744Z,60.26
2023-03-12T19:53:20.383Z,60.29
2023-03-12T19:58:28.863Z,60.32
2023-03-12T20:03:43.618Z,60.49
2023-03-12T20:08:51.379Z,60.61
2023-03-12T20:13:58.883Z,60.82
2023-03-12T20:19:06.125Z,60.86
2023-03-12T20:24:15.101Z,60.89
2023-03-12T20:29:23.564Z,61.12
2023-03-12T20:34:32.154Z,61.23
2023-03-12T20:39:40.838Z,61.34
2023-03-12T20:44:49.464Z,61.48
2023-03-12T20:49:58.039Z,61.50
2023-03-12T20:55:06.991Z,61.52
2023-03-12T21:00:16.692Z,61.63
2023-03-12T21:05:25.198Z,61.55
2023-03-12T21:10:33.866Z,61.63
2023-03-12T21:15:43.031Z,61.85
2023-03-12T21:20:51.404Z,61.62
2023-03-12T21:26:07.802Z,61.34
2023-03-12T21:31:19.319Z,61.33
2023-03-12T21:36:27.958Z,61.19
2023-03-12T21:41:36.673Z,61.26
2023-03-12T21:46:45.105Z,61.30
2023-03-12T21:51:53.317Z,61.44
2023-03-12T21:57:02.797Z,61.57
2023-03-12T22:02:14.065Z,61.83
2023-03-12T22:07:22.440Z,61.67
2023-03-12T22:12:31.183Z,62.45
2023-03-12T22:17:40.146Z,62.42
2023-03-12T22:22:48.514Z,62.12
2023-03-12T22:27:56.809Z,61.93
2023-03-12T22:33:05.548Z,61.79
2023-03-12T22:38:13.861Z,61.59
2023-03-12T22:43:21.756Z,61.58
2023-03-12T22:48:29.230Z,61.60
2023-03-12T22:53:36.973Z,61.83
2023-03-12T22:58:44.508Z,61.99
2023-03-12T23:03:53.060Z,62.03
2023-03-12T23:09:01.518Z,62.23
2023-03-12T23:14:10.020Z,62.22
2023-03-12T23:19:18.090Z,62.88
2023-03-12T23:24:27.272Z,63.08
2023-03-12T23:29:36.640Z,62.66
2023-03-12T23:34:44.942Z,62.11
2023-03-12T23:39:55.017Z,61.76
2023-03-12T23:45:04.388Z,61.69
2023-03-12T23:50:14.711Z,61.95
2023-03-12T23:55:23.220Z,61.98
